Time;durP1;ratioP1;P1;durP2;ratioP2;P2;SDS_P1;SDS_P2;PMS_P1;PMS_P2;Temp;Humidity;BMP_temperature;BMP_pressure;BME280_temperature;BME280_humidity;BME280_pressure;Samples;Min_cycle;Max_cycle;Signal;HPM_P1;HPM_P2
2021/07/29 00:00:37;;;;;;;4.00;3.70;;;15.70;99.90;;;;;;5031186;28;20218;-61
2021/07/29 00:03:03;;;;;;;7.87;3.10;;;15.60;99.90;;;;;;5030960;28;20494;-62
2021/07/29 00:05:31;;;;;;;4.03;3.00;;;15.60;99.90;;;;;;5032800;28;20785;-62
2021/07/29 00:07:57;;;;;;;3.60;3.30;;;15.60;99.90;;;;;;5034649;28;20427;-62
2021/07/29 00:10:23;;;;;;;6.67;4.43;;;15.50;99.90;;;;;;5034885;28;20413;-62
2021/07/29 00:12:49;;;;;;;3.80;3.13;;;15.50;99.90;;;;;;5034969;28;20578;-62
2021/07/29 00:15:17;;;;;;;3.40;3.10;;;15.50;99.90;;;;;;5035293;28;20474;-62
2021/07/29 00:20:14;;;;;;;4.43;2.90;;;15.50;99.90;;;;;;5035337;28;20446;-62
2021/07/29 00:22:40;;;;;;;3.67;3.37;;;15.50;99.90;;;;;;5034579;28;20470;-62
2021/07/29 00:25:11;;;;;;;3.80;3.50;;;15.60;99.90;;;;;;5034602;28;20454;-62
2021/07/29 00:27:36;;;;;;;3.50;3.23;;;15.50;99.90;;;;;;5034983;28;20463;-62
2021/07/29 00:30:03;;;;;;;5.00;3.23;;;15.50;99.90;;;;;;5034530;28;20407;-62
2021/07/29 00:32:29;;;;;;;5.90;3.50;;;15.50;99.90;;;;;;5034364;28;20554;-62
2021/07/29 00:34:54;;;;;;;4.90;3.30;;;15.40;99.90;;;;;;5033909;28;20450;-62
2021/07/29 00:37:20;;;;;;;3.50;3.23;;;15.30;99.90;;;;;;5033914;28;20173;-62
2021/07/29 00:39:45;;;;;;;3.40;3.10;;;15.40;99.90;;;;;;5034369;28;20255;-62
2021/07/29 00:42:11;;;;;;;4.03;3.73;;;15.30;99.90;;;;;;5034036;28;20656;-62
2021/07/29 00:44:37;;;;;;;4.63;4.33;;;15.40;99.90;;;;;;5033933;28;20660;-62
2021/07/29 00:47:07;;;;;;;3.93;3.07;;;15.40;99.90;;;;;;5034026;28;20175;-61
2021/07/29 00:49:33;;;;;;;5.90;3.50;;;15.30;99.90;;;;;;5034098;28;20431;-62
2021/07/29 00:51:59;;;;;;;8.60;3.30;;;15.30;99.90;;;;;;5034070;28;20399;-62
2021/07/29 00:54:29;;;;;;;3.30;3.00;;;15.30;99.90;;;;;;5033764;28;20494;-62
2021/07/29 00:56:57;;;;;;;4.90;4.40;;;15.30;99.90;;;;;;5033535;28;20414;-60
2021/07/29 00:59:24;;;;;;;3.80;3.50;;;15.20;99.90;;;;;;5033743;28;20943;-62
2021/07/29 01:01:49;;;;;;;4.43;3.43;;;15.20;99.90;;;;;;5033634;28;20407;-62
2021/07/29 01:04:15;;;;;;;3.83;3.53;;;15.10;99.90;;;;;;5033706;28;20755;-61
2021/07/29 01:06:40;;;;;;;3.97;3.67;;;15.20;99.90;;;;;;5033248;28;20219;-62
2021/07/29 01:09:09;;;;;;;3.90;3.60;;;15.20;99.90;;;;;;5033519;28;20196;-62
2021/07/29 01:11:39;;;;;;;3.53;3.33;;;15.10;99.90;;;;;;5034023;28;20176;-62
2021/07/29 01:14:05;;;;;;;3.80;3.50;;;15.10;99.90;;;;;;5033795;28;20409;-62
2021/07/29 01:16:31;;;;;;;3.77;3.47;;;15.10;99.90;;;;;;5032443;28;20935;-62
2021/07/29 01:18:58;;;;;;;4.70;4.30;;;15.10;99.90;;;;;;5033205;28;20419;-61
2021/07/29 01:21:28;;;;;;;4.17;3.80;;;15.10;99.90;;;;;;5033631;28;20412;-62
2021/07/29 01:23:55;;;;;;;6.67;4.53;;;15.00;99.90;;;;;;5033366;28;20404;-62
2021/07/29 01:26:20;;;;;;;4.50;4.10;;;15.00;99.90;;;;;;5032778;28;20903;-62
2021/07/29 01:28:46;;;;;;;3.50;3.20;;;15.00;99.90;;;;;;5033094;28;20482;-62
2021/07/29 01:31:11;;;;;;;4.30;4.00;;;14.90;99.90;;;;;;5033322;28;20544;-61
2021/07/29 01:33:38;;;;;;;4.07;3.53;;;14.90;99.90;;;;;;5032915;28;20181;-62
2021/07/29 01:36:04;;;;;;;3.40;3.20;;;14.90;99.90;;;;;;5032797;28;20207;-62
2021/07/29 01:38:30;;;;;;;4.43;4.03;;;14.80;99.90;;;;;;5032812;28;20443;-62
2021/07/29 01:40:55;;;;;;;3.87;3.57;;;14.70;99.90;;;;;;5033054;28;20628;-62
2021/07/29 01:43:21;;;;;;;4.17;3.87;;;14.70;99.90;;;;;;5032848;28;20176;-62
2021/07/29 01:45:47;;;;;;;3.47;3.17;;;14.70;99.90;;;;;;5032771;28;20172;-62
2021/07/29 01:48:13;;;;;;;4.77;4.07;;;14.70;99.90;;;;;;5032683;28;20193;-62
2021/07/29 01:50:38;;;;;;;3.83;3.53;;;14.70;99.90;;;;;;5032843;28;20169;-61
2021/07/29 01:53:04;;;;;;;3.40;3.10;;;14.70;99.90;;;;;;5033138;28;20172;-61
2021/07/29 01:55:29;;;;;;;3.60;3.30;;;14.60;99.90;;;;;;5033638;28;20204;-62
2021/07/29 01:57:55;;;;;;;4.77;3.63;;;14.50;99.90;;;;;;5032995;28;20196;-62
2021/07/29 02:00:22;;;;;;;4.60;4.20;;;14.60;99.90;;;;;;5033021;28;20227;-61
2021/07/29 02:02:48;;;;;;;3.50;3.30;;;14.50;99.90;;;;;;5033137;28;20252;-62
2021/07/29 02:05:14;;;;;;;3.90;3.60;;;14.50;99.90;;;;;;5032553;28;20407;-62
2021/07/29 02:07:39;;;;;;;4.73;3.07;;;14.50;99.90;;;;;;5032354;28;20442;-62
2021/07/29 02:10:05;;;;;;;6.63;3.63;;;14.50;99.90;;;;;;5032583;28;20291;-61
2021/07/29 02:12:31;;;;;;;3.47;3.17;;;14.50;99.90;;;;;;5032524;28;20200;-62
2021/07/29 02:14:58;;;;;;;3.33;3.03;;;14.50;99.90;;;;;;5032140;28;20486;-62
2021/07/29 02:17:23;;;;;;;3.40;3.03;;;14.40;99.90;;;;;;5032071;28;20169;-62
2021/07/29 02:19:49;;;;;;;6.87;3.50;;;14.30;99.90;;;;;;5032366;28;20404;-62
2021/07/29 02:22:15;;;;;;;3.47;3.17;;;14.40;99.90;;;;;;5032477;28;20663;-62
2021/07/29 02:24:41;;;;;;;6.17;3.53;;;14.30;99.90;;;;;;5032130;28;20340;-62
2021/07/29 02:27:06;;;;;;;4.00;3.60;;;14.20;99.90;;;;;;5031878;28;20406;-62
2021/07/29 02:29:32;;;;;;;4.90;3.83;;;14.20;99.90;;;;;;5031693;28;20181;-62
2021/07/29 02:31:58;;;;;;;4.23;3.10;;;14.20;99.90;;;;;;5032176;28;20535;-62
2021/07/29 02:34:23;;;;;;;4.00;3.70;;;14.10;99.90;;;;;;5031822;28;20204;-62
2021/07/29 02:36:50;;;;;;;3.93;3.60;;;14.10;99.90;;;;;;5032027;28;20165;-62
2021/07/29 02:39:16;;;;;;;4.07;3.73;;;14.00;99.90;;;;;;5031853;28;20196;-62
2021/07/29 02:41:41;;;;;;;3.60;3.20;;;13.90;99.90;;;;;;5031949;28;20435;-62
2021/07/29 02:44:07;;;;;;;4.37;3.97;;;14.00;99.90;;;;;;5031827;28;20486;-62
2021/07/29 02:46:33;;;;;;;4.70;4.07;;;14.00;99.90;;;;;;5031544;28;20649;-62
2021/07/29 02:48:58;;;;;;;3.20;3.00;;;14.00;99.90;;;;;;5031864;28;20189;-62
2021/07/29 02:51:24;;;;;;;4.00;3.43;;;14.00;99.90;;;;;;5031765;28;20168;-62
2021/07/29 02:53:49;;;;;;;4.53;3.63;;;14.00;99.90;;;;;;5031859;28;20246;-62
2021/07/29 02:56:15;;;;;;;4.27;3.87;;;14.10;99.90;;;;;;5031318;28;20189;-62
2021/07/29 02:58:40;;;;;;;3.67;3.43;;;14.10;99.90;;;;;;5031674;28;20215;-62
2021/07/29 03:01:06;;;;;;;3.67;3.33;;;14.10;99.90;;;;;;5031899;28;20168;-62
2021/07/29 03:03:32;;;;;;;4.23;3.83;;;14.00;99.90;;;;;;5031702;28;20582;-62
2021/07/29 03:05:58;;;;;;;3.07;2.80;;;14.00;99.90;;;;;;5031352;28;20168;-62
2021/07/29 03:08:23;;;;;;;5.33;4.30;;;14.10;99.90;;;;;;5031729;28;20196;-62
2021/07/29 03:10:49;;;;;;;4.80;4.30;;;14.20;99.90;;;;;;5031506;28;20867;-62
2021/07/29 03:13:15;;;;;;;3.87;3.57;;;14.20;99.90;;;;;;5031562;28;20169;-62
2021/07/29 03:15:41;;;;;;;4.37;3.10;;;14.10;99.90;;;;;;5031422;28;20239;-62
2021/07/29 03:18:07;;;;;;;4.00;3.70;;;14.10;99.90;;;;;;5031346;28;20420;-62
2021/07/29 03:20:33;;;;;;;3.90;3.60;;;14.20;99.90;;;;;;5031829;28;20453;-62
2021/07/29 03:22:58;;;;;;;11.33;5.77;;;14.20;99.90;;;;;;5031954;28;20692;-62
2021/07/29 03:25:24;;;;;;;3.60;2.93;;;14.20;99.90;;;;;;5031812;28;20407;-62
2021/07/29 03:27:50;;;;;;;3.33;3.03;;;14.10;99.90;;;;;;5031873;28;20184;-62
2021/07/29 03:30:16;;;;;;;3.70;3.40;;;14.10;99.90;;;;;;5032293;28;20250;-62
2021/07/29 03:32:41;;;;;;;3.87;3.60;;;14.20;99.90;;;;;;5032524;28;20181;-62
2021/07/29 03:35:07;;;;;;;4.80;4.13;;;14.20;99.90;;;;;;5032052;28;20861;-62
2021/07/29 03:37:33;;;;;;;5.47;3.87;;;14.20;99.90;;;;;;5031703;28;20223;-62
2021/07/29 03:40:03;;;;;;;3.60;3.30;;;14.20;99.90;;;;;;5032392;28;20483;-61
2021/07/29 03:42:30;;;;;;;4.50;4.10;;;14.30;99.90;;;;;;5036696;28;20163;-62
2021/07/29 03:44:56;;;;;;;4.10;3.80;;;14.20;99.90;;;;;;5035342;28;20407;-62
2021/07/29 03:47:21;;;;;;;3.90;3.50;;;14.20;99.90;;;;;;5035009;28;20419;-62
2021/07/29 03:49:47;;;;;;;4.63;3.97;;;14.20;99.90;;;;;;5035173;28;20204;-62
2021/07/29 03:52:12;;;;;;;3.17;2.97;;;14.10;99.90;;;;;;5034962;28;20179;-62
2021/07/29 03:54:38;;;;;;;3.67;3.30;;;14.20;99.90;;;;;;5034884;28;20188;-62
2021/07/29 03:57:04;;;;;;;3.53;3.23;;;14.10;99.90;;;;;;5034604;28;20176;-62
2021/07/29 03:59:29;;;;;;;4.17;3.20;;;14.10;99.90;;;;;;5034890;28;20657;-62
2021/07/29 04:01:55;;;;;;;3.70;3.40;;;14.20;99.90;;;;;;5034789;28;20177;-62
2021/07/29 04:04:20;;;;;;;5.50;3.33;;;14.10;99.90;;;;;;5034777;28;20242;-63
2021/07/29 04:06:46;;;;;;;3.70;3.40;;;14.10;99.90;;;;;;5034442;28;20181;-62
2021/07/29 04:09:12;;;;;;;3.40;3.10;;;14.10;99.90;;;;;;5034660;28;20240;-62
2021/07/29 04:11:38;;;;;;;4.60;4.30;;;14.10;99.90;;;;;;5034584;28;20994;-62
2021/07/29 04:14:03;;;;;;;3.93;3.70;;;14.10;99.90;;;;;;5034558;28;20255;-62
2021/07/29 04:16:29;;;;;;;3.37;3.03;;;14.10;99.90;;;;;;5034181;28;20723;-62
2021/07/29 04:18:55;;;;;;;5.73;2.97;;;14.10;99.90;;;;;;5034604;28;20540;-62
2021/07/29 04:21:20;;;;;;;5.27;3.30;;;14.10;99.90;;;;;;5034495;28;20184;-62
2021/07/29 04:23:46;;;;;;;3.30;2.93;;;14.10;99.90;;;;;;5034346;28;20173;-62
2021/07/29 04:26:11;;;;;;;6.80;2.83;;;14.10;99.90;;;;;;5033937;28;20549;-62
2021/07/29 04:28:37;;;;;;;5.87;3.03;;;14.10;99.90;;;;;;5034308;28;20696;-62
2021/07/29 04:31:02;;;;;;;3.97;3.13;;;14.20;99.90;;;;;;5034262;28;20691;-62
2021/07/29 04:33:28;;;;;;;3.80;3.50;;;14.10;99.90;;;;;;5034251;28;20180;-62
2021/07/29 04:35:53;;;;;;;4.70;4.00;;;14.10;99.90;;;;;;5034132;28;20262;-62
2021/07/29 04:38:19;;;;;;;3.47;3.27;;;14.20;99.90;;;;;;5033733;28;20673;-62
2021/07/29 04:40:44;;;;;;;2.60;2.40;;;14.10;99.90;;;;;;5034001;28;20179;-62
2021/07/29 04:43:10;;;;;;;4.23;3.10;;;14.20;99.90;;;;;;5034042;28;20173;-62
2021/07/29 04:45:35;;;;;;;3.23;3.03;;;14.20;99.90;;;;;;5033916;28;20172;-62
2021/07/29 04:48:01;;;;;;;2.80;2.60;;;14.20;99.90;;;;;;5033681;28;20246;-62
2021/07/29 04:50:26;;;;;;;2.93;2.60;;;14.10;99.90;;;;;;5033962;28;20252;-62
2021/07/29 04:52:53;;;;;;;3.70;2.67;;;14.20;99.90;;;;;;5033632;28;20176;-62
2021/07/29 04:55:19;;;;;;;3.53;3.20;;;14.10;99.90;;;;;;5033830;28;20204;-62
2021/07/29 04:57:44;;;;;;;3.77;3.10;;;14.20;99.90;;;;;;5033569;28;20465;-62
2021/07/29 05:00:11;;;;;;;3.27;2.60;;;14.20;99.90;;;;;;5033827;28;20633;-62
2021/07/29 05:02:36;;;;;;;3.07;2.87;;;14.10;99.90;;;;;;5033502;28;20671;-62
2021/07/29 05:05:04;;;;;;;3.33;3.10;;;14.20;99.90;;;;;;5033709;28;20411;-62
2021/07/29 05:07:29;;;;;;;5.30;3.53;;;14.20;99.90;;;;;;5033185;28;20188;-61
2021/07/29 05:09:55;;;;;;;4.30;3.70;;;14.30;99.90;;;;;;5033618;28;20404;-62
2021/07/29 05:12:20;;;;;;;10.03;4.07;;;14.20;99.90;;;;;;5033496;28;20184;-62
2021/07/29 05:14:46;;;;;;;3.50;2.97;;;14.20;99.90;;;;;;5033572;28;20571;-62
2021/07/29 05:17:11;;;;;;;3.17;2.90;;;14.20;99.90;;;;;;5033154;28;20184;-62
2021/07/29 05:19:37;;;;;;;3.27;2.97;;;14.20;99.90;;;;;;5033567;28;20594;-62
2021/07/29 05:22:03;;;;;;;3.70;2.93;;;14.30;99.90;;;;;;5033236;28;20664;-62
2021/07/29 05:24:29;;;;;;;3.23;2.63;;;14.20;99.90;;;;;;5033191;28;20169;-62
2021/07/29 05:26:55;;;;;;;3.30;2.40;;;14.30;99.90;;;;;;5032919;28;20415;-62
2021/07/29 05:29:21;;;;;;;3.13;2.83;;;14.30;99.90;;;;;;5033189;28;20735;-62
2021/07/29 05:31:46;;;;;;;4.83;3.17;;;14.30;99.90;;;;;;5033291;28;20447;-62
2021/07/29 05:34:12;;;;;;;4.73;3.00;;;14.40;99.90;;;;;;5033126;28;20784;-63
2021/07/29 05:36:38;;;;;;;4.43;3.80;;;14.40;99.90;;;;;;5032680;28;20347;-61
2021/07/29 05:39:04;;;;;;;6.30;2.70;;;14.40;99.90;;;;;;5032808;28;20196;-62
2021/07/29 05:41:30;;;;;;;3.70;3.50;;;14.40;99.90;;;;;;5032847;28;20177;-62
2021/07/29 05:43:55;;;;;;;4.83;3.53;;;14.50;99.90;;;;;;5032896;28;20399;-62
2021/07/29 05:46:22;;;;;;;4.00;3.60;;;14.50;99.90;;;;;;5032545;28;20613;-62
2021/07/29 05:48:48;;;;;;;4.63;4.30;;;14.60;99.90;;;;;;5032778;28;20192;-62
2021/07/29 05:51:13;;;;;;;4.80;3.00;;;14.50;99.90;;;;;;5032801;28;20415;-62
2021/07/29 05:53:39;;;;;;;3.17;2.97;;;14.50;99.90;;;;;;5033202;28;20411;-62
2021/07/29 05:56:04;;;;;;;3.73;2.60;;;14.60;99.90;;;;;;5032365;28;20208;-62
2021/07/29 05:58:30;;;;;;;4.60;3.03;;;14.60;99.90;;;;;;5032530;28;20227;-62
2021/07/29 06:00:56;;;;;;;3.57;3.27;;;14.70;99.90;;;;;;5032790;28;20256;-62
2021/07/29 06:03:22;;;;;;;6.23;2.70;;;14.70;99.90;;;;;;5031897;28;20732;-62
2021/07/29 06:05:48;;;;;;;4.63;3.40;;;14.70;99.90;;;;;;5032552;28;20494;-62
2021/07/29 06:08:13;;;;;;;4.43;3.70;;;14.70;99.90;;;;;;5032055;28;20435;-62
2021/07/29 06:10:39;;;;;;;4.50;3.77;;;14.70;99.90;;;;;;5032949;28;20578;-62
2021/07/29 06:13:05;;;;;;;8.47;3.30;;;14.80;99.90;;;;;;5031820;28;20187;-62
2021/07/29 06:15:31;;;;;;;4.97;4.40;;;14.90;99.90;;;;;;5031587;28;20220;-63
2021/07/29 06:18:00;;;;;;;3.40;3.20;;;14.90;99.90;;;;;;5031107;28;20415;-64
2021/07/29 06:20:27;;;;;;;4.63;4.17;;;15.10;99.90;;;;;;5032295;28;20176;-63
2021/07/29 06:22:53;;;;;;;4.33;3.50;;;15.20;99.90;;;;;;5031998;28;20787;-63
2021/07/29 06:25:19;;;;;;;4.40;3.57;;;15.20;99.90;;;;;;5032219;28;20411;-63
2021/07/29 06:27:47;;;;;;;4.27;4.00;;;15.30;99.90;;;;;;5031684;28;20602;-63
2021/07/29 06:30:13;;;;;;;6.57;4.30;;;15.30;99.90;;;;;;5032210;28;20176;-62
2021/07/29 06:32:39;;;;;;;3.83;2.90;;;15.30;99.90;;;;;;5031965;28;20407;-63
2021/07/29 06:35:05;;;;;;;4.30;3.30;;;15.50;99.90;;;;;;5031949;28;20493;-62
2021/07/29 06:37:31;;;;;;;3.73;3.33;;;15.50;99.90;;;;;;5031201;28;20242;-62
2021/07/29 06:39:56;;;;;;;6.00;3.40;;;15.70;99.90;;;;;;5032087;28;20407;-62
2021/07/29 06:42:22;;;;;;;6.43;3.77;;;15.60;99.90;;;;;;5031851;28;20179;-62
2021/07/29 06:44:47;;;;;;;3.37;3.17;;;15.70;99.90;;;;;;5031899;28;20240;-62
2021/07/29 06:47:14;;;;;;;3.73;3.17;;;15.80;99.90;;;;;;5031488;28;20165;-62
2021/07/29 06:49:40;;;;;;;3.00;2.80;;;15.80;99.90;;;;;;5031847;28;20164;-62
2021/07/29 06:52:05;;;;;;;2.77;2.57;;;15.80;99.90;;;;;;5031646;28;20498;-62
2021/07/29 06:54:31;;;;;;;3.20;2.73;;;15.80;99.90;;;;;;5031977;28;20251;-62
2021/07/29 06:56:57;;;;;;;2.07;1.87;;;15.60;99.90;;;;;;5031401;28;20766;-64
2021/07/29 06:59:22;;;;;;;5.03;2.73;;;15.60;99.90;;;;;;5031633;28;20188;-65
2021/07/29 07:01:48;;;;;;;11.90;2.70;;;15.80;99.90;;;;;;5031840;28;20191;-65
2021/07/29 07:04:14;;;;;;;4.73;2.97;;;15.80;99.90;;;;;;5031515;28;20169;-64
2021/07/29 07:06:39;;;;;;;3.13;2.23;;;15.70;99.90;;;;;;5031399;28;20176;-65
2021/07/29 07:09:05;;;;;;;5.83;3.07;;;15.70;99.90;;;;;;5031547;28;20208;-64
2021/07/29 07:11:30;;;;;;;3.63;2.87;;;15.80;99.90;;;;;;5031675;28;20173;-63
2021/07/29 07:13:56;;;;;;;3.27;3.07;;;15.90;99.90;;;;;;5031874;28;20168;-64
2021/07/29 07:16:22;;;;;;;3.10;2.40;;;16.00;99.90;;;;;;5035378;28;20203;-65
2021/07/29 07:18:47;;;;;;;2.83;2.63;;;15.90;99.90;;;;;;5035603;28;20188;-64
2021/07/29 07:21:13;;;;;;;4.63;2.50;;;16.00;99.90;;;;;;5035574;28;20165;-64
2021/07/29 07:23:40;;;;;;;7.50;2.80;;;16.00;99.90;;;;;;5035427;28;20656;-64
2021/07/29 07:26:13;;;;;;;3.33;2.57;;;16.10;99.90;;;;;;5035259;28;20191;-64
2021/07/29 07:28:38;;;;;;;3.27;2.63;;;16.10;99.90;;;;;;5035545;28;20947;-64
2021/07/29 07:31:04;;;;;;;5.03;2.60;;;16.20;99.90;;;;;;5035393;28;20411;-65
2021/07/29 07:33:29;;;;;;;3.23;3.03;;;16.30;99.30;;;;;;5035188;28;20172;-63
2021/07/29 07:35:55;;;;;;;3.20;2.90;;;16.10;99.80;;;;;;5035081;28;20235;-65
2021/07/29 07:38:21;;;;;;;2.97;2.27;;;16.10;99.90;;;;;;5035107;28;20633;-64
2021/07/29 07:40:46;;;;;;;2.50;2.30;;;16.00;99.90;;;;;;5035351;28;20169;-64
2021/07/29 07:43:12;;;;;;;7.10;2.80;;;16.30;99.90;;;;;;5035273;28;20526;-63
2021/07/29 07:45:37;;;;;;;2.73;2.40;;;16.40;99.90;;;;;;5035237;28;20691;-64
2021/07/29 07:48:04;;;;;;;6.03;4.20;;;16.40;99.40;;;;;;5034804;28;20283;-64
2021/07/29 07:50:29;;;;;;;2.50;2.30;;;16.60;99.70;;;;;;5035373;28;20212;-64
2021/07/29 07:52:55;;;;;;;4.60;2.47;;;16.80;99.90;;;;;;5034912;28;20411;-64
2021/07/29 07:55:21;;;;;;;3.77;2.80;;;16.80;98.90;;;;;;5034998;28;20335;-64
2021/07/29 07:57:46;;;;;;;4.47;3.27;;;16.80;98.70;;;;;;5034765;28;20189;-63
2021/07/29 08:00:12;;;;;;;4.60;3.40;;;16.80;99.30;;;;;;5034859;28;20246;-64
2021/07/29 08:02:38;;;;;;;4.33;2.60;;;16.90;98.90;;;;;;5034887;28;20165;-64
2021/07/29 08:05:03;;;;;;;4.17;2.50;;;16.90;97.60;;;;;;5034577;28;20429;-64
2021/07/29 08:07:29;;;;;;;2.60;2.40;;;16.90;97.70;;;;;;5034486;28;20534;-64
2021/07/29 08:09:56;;;;;;;4.13;2.17;;;17.10;98.20;;;;;;5034660;28;20406;-64
2021/07/29 08:12:22;;;;;;;2.60;2.40;;;17.10;97.40;;;;;;5034832;28;20188;-64
2021/07/29 08:14:47;;;;;;;4.17;2.70;;;17.20;98.00;;;;;;5034484;28;20782;-63
2021/07/29 08:17:13;;;;;;;2.40;2.20;;;17.30;97.40;;;;;;5034259;28;20169;-64
2021/07/29 08:19:39;;;;;;;2.93;2.63;;;17.20;96.60;;;;;;5034326;28;20169;-64
2021/07/29 08:22:04;;;;;;;5.03;2.90;;;17.30;97.00;;;;;;5034596;28;20252;-64
2021/07/29 08:24:31;;;;;;;6.20;2.80;;;17.30;97.60;;;;;;5034349;28;20591;-64
2021/07/29 08:26:57;;;;;;;3.20;2.60;;;17.40;97.80;;;;;;5033547;28;20160;-64
2021/07/29 08:29:23;;;;;;;4.03;2.87;;;17.40;97.80;;;;;;5034183;28;20427;-64
2021/07/29 08:31:48;;;;;;;4.00;2.73;;;17.30;98.00;;;;;;5034329;28;20260;-64
2021/07/29 08:34:14;;;;;;;7.07;2.50;;;17.30;97.40;;;;;;5033959;28;20180;-63
2021/07/29 08:36:41;;;;;;;3.07;2.87;;;17.20;96.10;;;;;;5034103;28;20200;-63
2021/07/29 08:39:08;;;;;;;2.70;1.97;;;17.20;96.20;;;;;;5034059;28;20208;-63
2021/07/29 08:41:35;;;;;;;5.63;2.77;;;17.10;96.80;;;;;;5034256;28;20411;-64
2021/07/29 08:44:00;;;;;;;5.03;2.53;;;17.00;96.80;;;;;;5034066;28;20403;-64
2021/07/29 08:46:26;;;;;;;4.20;3.47;;;17.10;97.30;;;;;;5033672;28;20415;-63
2021/07/29 08:48:52;;;;;;;3.33;2.47;;;17.20;96.90;;;;;;5033818;28;20318;-64
2021/07/29 08:51:23;;;;;;;2.53;2.10;;;17.40;96.90;;;;;;5034083;28;20181;-64
2021/07/29 08:53:49;;;;;;;5.43;2.57;;;17.30;96.20;;;;;;5034014;28;20446;-65
2021/07/29 08:56:17;;;;;;;2.80;2.23;;;17.50;95.60;;;;;;5033433;28;20746;-65
2021/07/29 08:58:43;;;;;;;2.57;2.37;;;17.60;95.40;;;;;;5034176;28;20420;-64
2021/07/29 09:01:11;;;;;;;3.53;2.60;;;17.90;95.80;;;;;;5033718;28;20404;-64
2021/07/29 09:03:37;;;;;;;4.20;2.37;;;18.10;95.80;;;;;;5033671;28;20164;-63
2021/07/29 09:06:06;;;;;;;2.50;2.30;;;18.10;93.70;;;;;;5033266;28;20430;-64
2021/07/29 09:08:46;;;;;;;3.43;2.37;;;17.70;93.20;;;;;;5033849;28;20556;-64
2021/07/29 09:11:25;;;;;;;3.13;2.23;;;17.90;95.80;;;;;;5033575;28;20411;-64
2021/07/29 09:14:14;;;;;;;3.90;3.03;;;18.20;95.50;;;;;;5033379;28;20407;-64
2021/07/29 09:16:55;;;;;;;2.03;1.80;;;18.50;94.30;;;;;;5033019;28;20478;-62
2021/07/29 09:19:33;;;;;;;3.23;1.80;;;18.70;93.40;;;;;;5033457;28;20427;-64
2021/07/29 09:22:10;;;;;;;8.60;2.97;;;18.80;92.50;;;;;;5033250;28;20486;-63
2021/07/29 09:25:05;;;;;;;1.80;1.70;;;18.80;93.20;;;;;;5033289;28;20407;-64
2021/07/29 09:27:39;;;;;;;4.10;2.50;;;19.10;93.60;;;;;;5032944;28;20838;-63
2021/07/29 09:30:24;;;;;;;5.07;2.07;;;18.80;91.40;;;;;;5033258;28;20407;-64
2021/07/29 09:32:54;;;;;;;2.87;2.23;;;18.70;93.10;;;;;;5033198;28;20414;-64
2021/07/29 09:35:28;;;;;;;2.87;2.70;;;19.10;93.50;;;;;;5032956;28;20443;-64
2021/07/29 09:37:54;;;;;;;3.70;1.70;;;19.20;92.00;;;;;;5031686;28;20538;-64
2021/07/29 09:40:20;;;;;;;4.93;2.17;;;19.20;91.60;;;;;;5033116;28;20495;-64
2021/07/29 09:43:07;;;;;;;3.13;2.47;;;19.20;92.40;;;;;;5032982;28;20161;-65
2021/07/29 09:45:32;;;;;;;4.70;2.07;;;19.40;92.20;;;;;;5033501;28;20203;-64
2021/07/29 09:47:59;;;;;;;2.33;2.17;;;19.60;92.40;;;;;;5032503;28;20869;-64
2021/07/29 09:50:25;;;;;;;2.30;2.10;;;19.60;91.40;;;;;;5032952;28;20592;-65
2021/07/29 09:52:52;;;;;;;2.50;2.00;;;19.60;90.40;;;;;;5032598;28;20472;-65
2021/07/29 09:55:19;;;;;;;2.20;2.00;;;19.30;91.20;;;;;;5032647;28;20825;-65
2021/07/29 09:57:45;;;;;;;4.60;2.17;;;19.00;91.50;;;;;;5032292;28;20923;-65
2021/07/29 10:00:11;;;;;;;3.20;2.47;;;18.90;91.60;;;;;;5032711;28;20411;-65
2021/07/29 10:02:37;;;;;;;3.30;2.13;;;18.60;92.50;;;;;;5032443;28;20231;-64
2021/07/29 10:05:03;;;;;;;4.87;2.17;;;18.50;92.80;;;;;;5032912;28;20415;-66
2021/07/29 10:07:31;;;;;;;3.07;2.33;;;18.40;92.30;;;;;;5032120;28;20669;-64
2021/07/29 10:09:59;;;;;;;3.70;3.10;;;18.30;92.10;;;;;;5032482;28;20407;-65
2021/07/29 10:12:30;;;;;;;4.17;2.53;;;18.60;93.00;;;;;;5032574;28;20407;-65
2021/07/29 10:14:57;;;;;;;3.40;2.20;;;19.00;93.60;;;;;;5032308;28;20407;-65
2021/07/29 10:17:34;;;;;;;2.97;2.67;;;19.60;93.60;;;;;;5031923;28;20411;-63
2021/07/29 10:20:17;;;;;;;3.57;1.90;;;20.10;93.50;;;;;;5032322;28;20441;-63
2021/07/29 10:22:44;;;;;;;4.67;1.80;;;20.10;90.60;;;;;;5032256;28;20475;-63
2021/07/29 10:25:10;;;;;;;5.40;2.10;;;19.80;90.30;;;;;;5032271;28;20399;-63
2021/07/29 10:27:36;;;;;;;3.80;3.33;;;19.60;90.60;;;;;;5031886;28;20457;-62
2021/07/29 10:30:19;;;;;;;2.50;2.30;;;19.30;90.40;;;;;;5032242;28;20923;-63
2021/07/29 10:32:52;;;;;;;4.53;2.00;;;19.20;91.60;;;;;;5031940;28;20172;-62
2021/07/29 10:35:30;;;;;;;7.30;2.57;;;19.40;91.20;;;;;;5032081;28;20446;-63
2021/07/29 10:37:56;;;;;;;4.93;2.20;;;19.60;90.90;;;;;;5031534;28;20940;-63
2021/07/29 10:40:39;;;;;;;5.43;2.33;;;20.10;91.80;;;;;;5032002;28;20775;-64
2021/07/29 10:43:23;;;;;;;4.13;2.50;;;20.20;91.80;;;;;;5031869;28;20907;-63
2021/07/29 10:45:51;;;;;;;2.10;1.90;;;19.90;90.20;;;;;;5031946;28;20470;-63
2021/07/29 10:48:51;;;;;;;2.67;2.47;;;19.70;89.50;;;;;;5031504;28;20415;-63
2021/07/29 10:51:23;;;;;;;5.20;2.30;;;19.40;90.90;;;;;;5027244;28;20425;-64
2021/07/29 10:53:55;;;;;;;6.63;2.10;;;19.40;91.30;;;;;;5031616;28;20460;-64
2021/07/29 10:56:23;;;;;;;1.83;1.73;;;19.60;92.10;;;;;;5031520;28;20458;-63
2021/07/29 10:58:49;;;;;;;2.83;2.03;;;20.40;92.60;;;;;;5031581;28;20770;-62
2021/07/29 11:01:16;;;;;;;3.33;1.93;;;20.80;90.90;;;;;;5031760;28;20403;-64
2021/07/29 11:03:49;;;;;;;3.23;2.07;;;21.00;89.00;;;;;;5031658;28;20416;-64
2021/07/29 11:06:40;;;;;;;2.03;1.93;;;20.40;88.80;;;;;;5031386;28;20761;-64
2021/07/29 11:09:32;;;;;;;4.30;2.00;;;20.20;88.20;;;;;;5031570;28;20434;-64
2021/07/29 11:11:59;;;;;;;3.27;2.13;;;20.80;90.40;;;;;;5031753;28;20404;-64
2021/07/29 11:14:33;;;;;;;2.90;2.60;;;21.20;87.40;;;;;;5031970;28;20419;-64
2021/07/29 11:17:01;;;;;;;5.13;2.30;;;21.00;86.50;;;;;;5031263;28;20557;-64
2021/07/29 11:19:27;;;;;;;2.00;1.90;;;20.80;87.80;;;;;;5031327;28;20470;-64
2021/07/29 11:22:03;;;;;;;1.83;1.73;;;21.10;87.10;;;;;;5031597;28;20442;-64
2021/07/29 11:24:28;;;;;;;4.93;1.80;;;21.50;86.10;;;;;;5031388;28;20168;-64
2021/07/29 11:26:54;;;;;;;3.07;2.17;;;21.50;85.70;;;;;;5031235;28;20486;-64
2021/07/29 11:29:19;;;;;;;3.30;3.00;;;21.40;86.60;;;;;;5031204;28;20196;-64
2021/07/29 11:31:45;;;;;;;3.17;2.00;;;21.20;84.10;;;;;;5031489;28;20168;-64
2021/07/29 11:34:11;;;;;;;2.93;2.70;;;21.20;86.80;;;;;;5031342;28;20208;-64
2021/07/29 11:36:37;;;;;;;3.27;2.97;;;21.00;86.20;;;;;;5031030;28;20291;-64
2021/07/29 11:39:06;;;;;;;4.00;1.93;;;20.70;87.90;;;;;;5031209;28;20447;-64
2021/07/29 11:41:51;;;;;;;2.27;2.07;;;20.60;88.30;;;;;;5031311;28;20165;-64
2021/07/29 11:44:17;;;;;;;3.33;2.10;;;20.50;86.80;;;;;;5031239;28;20693;-64
2021/07/29 11:46:57;;;;;;;3.50;2.43;;;20.90;90.20;;;;;;5031101;28;20412;-64
2021/07/29 11:49:23;;;;;;;2.80;1.83;;;21.30;88.20;;;;;;5031215;28;20930;-64
2021/07/29 11:52:09;;;;;;;5.50;2.70;;;21.40;85.80;;;;;;5031381;28;20881;-64
2021/07/29 11:54:35;;;;;;;2.97;2.00;;;21.10;85.40;;;;;;5031302;28;20465;-64
2021/07/29 11:57:02;;;;;;;3.50;2.00;;;21.00;87.40;;;;;;5030086;28;20570;-65
2021/07/29 11:59:38;;;;;;;5.40;2.73;;;21.00;88.80;;;;;;5030880;28;20423;-65
2021/07/29 12:02:06;;;;;;;2.50;1.93;;;21.10;88.20;;;;;;5033307;28;20394;-65
2021/07/29 12:04:43;;;;;;;6.00;2.17;;;21.20;90.00;;;;;;5034678;28;20430;-64
2021/07/29 12:07:10;;;;;;;2.60;2.27;;;21.50;90.50;;;;;;5034513;28;20402;-64
2021/07/29 12:09:40;;;;;;;2.57;2.37;;;21.60;88.70;;;;;;5034599;28;20462;-65
2021/07/29 12:12:06;;;;;;;3.70;2.40;;;21.40;87.70;;;;;;5034847;28;20965;-65
2021/07/29 12:14:32;;;;;;;3.87;2.07;;;21.20;87.90;;;;;;5034425;28;20494;-64
2021/07/29 12:16:58;;;;;;;2.13;1.93;;;20.90;86.10;;;;;;5034229;28;20455;-64
2021/07/29 12:19:24;;;;;;;2.13;1.93;;;20.80;86.80;;;;;;5034807;28;20932;-64
2021/07/29 12:21:51;;;;;;;2.57;2.47;;;20.50;86.60;;;;;;5034647;28;20172;-64
2021/07/29 12:24:17;;;;;;;2.47;2.27;;;20.60;88.00;;;;;;5034530;28;20168;-65
2021/07/29 12:27:05;;;;;;;5.50;2.70;;;21.40;90.50;;;;;;5034118;28;20426;-64
2021/07/29 12:29:39;;;;;;;2.50;1.90;;;21.80;90.50;;;;;;5034223;28;20418;-65
2021/07/29 12:32:04;;;;;;;3.07;2.10;;;21.70;85.00;;;;;;5034220;28;20487;-66
2021/07/29 12:34:34;;;;;;;4.03;2.63;;;21.20;87.10;;;;;;5034210;28;20486;-66
2021/07/29 12:37:00;;;;;;;2.37;2.10;;;21.00;87.60;;;;;;5033814;28;20294;-66
2021/07/29 12:39:33;;;;;;;7.60;2.37;;;20.90;88.00;;;;;;5034033;28;20538;-65
2021/07/29 12:41:59;;;;;;;2.87;2.67;;;20.80;87.20;;;;;;5034582;28;20165;-64
2021/07/29 12:44:24;;;;;;;4.33;2.23;;;21.00;89.10;;;;;;5034009;28;20407;-65
2021/07/29 12:47:08;;;;;;;2.77;2.50;;;21.10;87.20;;;;;;5033856;28;20173;-66
2021/07/29 12:49:40;;;;;;;2.20;1.77;;;21.10;88.60;;;;;;5034114;28;20195;-66